createdAt,value
2022-11-06T00:09:41.646Z,5.26
2022-11-06T00:19:47.305Z,5.12
2022-11-06T00:29:53.032Z,4.99
2022-11-06T00:39:59.585Z,4.76
2022-11-06T00:50:05.522Z,4.47
2022-11-06T01:00:13.931Z,4.14
2022-11-06T01:10:19.701Z,3.85
2022-11-06T01:20:25.641Z,3.59
2022-11-06T01:30:31.372Z,3.46
2022-11-06T01:40:44.999Z,3.39
2022-11-06T01:50:53.842Z,3.31
2022-11-06T02:00:59.615Z,3.18
2022-11-06T02:11:05.647Z,3.06
2022-11-06T02:21:33.825Z,3.00
2022-11-06T02:31:43.517Z,2.98
2022-11-06T02:41:51.073Z,3.09
2022-11-06T02:52:01.369Z,3.16
2022-11-06T03:02:11.515Z,3.11
2022-11-06T03:12:26.249Z,3.09
2022-11-06T03:22:37.008Z,3.07
2022-11-06T03:32:47.919Z,3.11
2022-11-06T03:42:58.248Z,3.12
2022-11-06T03:53:10.926Z,3.12
2022-11-06T04:03:23.449Z,3.14
2022-11-06T04:13:48.747Z,3.11
2022-11-06T04:24:25.404Z,3.00
2022-11-06T04:34:42.594Z,2.76
2022-11-06T04:44:51.888Z,2.65
2022-11-06T04:54:59.290Z,2.56
2022-11-06T05:05:05.241Z,2.43
2022-11-06T05:15:12.087Z,2.37
2022-11-06T05:25:17.670Z,2.29
2022-11-06T05:35:23.666Z,2.32
2022-11-06T05:45:29.618Z,2.33
2022-11-06T05:55:35.249Z,2.35
2022-11-06T06:05:40.888Z,2.39
2022-11-06T06:15:46.571Z,2.47
2022-11-06T06:25:52.195Z,2.72
2022-11-06T06:35:58.085Z,3.00
2022-11-06T06:46:06.000Z,3.33
2022-11-06T06:56:12.056Z,3.56
2022-11-06T07:06:18.935Z,3.92
2022-11-06T07:16:25.394Z,4.00
2022-11-06T07:26:31.060Z,4.10
2022-11-06T07:36:37.184Z,4.44
2022-11-06T07:46:42.801Z,4.81
2022-11-06T07:56:48.400Z,4.98
2022-11-06T08:06:54.037Z,5.22
2022-11-06T08:17:00.632Z,5.55
2022-11-06T08:27:06.410Z,5.95
2022-11-06T08:37:13.144Z,6.37
2022-11-06T08:47:18.848Z,7.10
2022-11-06T08:57:24.589Z,7.66
2022-11-06T09:07:30.351Z,8.16
2022-11-06T09:17:36.071Z,8.42
2022-11-06T09:27:48.732Z,9.36
2022-11-06T09:37:54.449Z,9.19
2022-11-06T09:48:05.450Z,9.20
2022-11-06T09:58:17.498Z,9.15
2022-11-06T10:08:27.082Z,9.05
2022-11-06T10:18:45.379Z,8.95
2022-11-06T10:29:16.483Z,8.81
2022-11-06T10:39:26.181Z,8.82
2022-11-06T10:49:41.900Z,8.91
2022-11-06T10:59:48.688Z,8.98
2022-11-06T11:09:54.602Z,9.03
2022-11-06T11:20:02.227Z,9.08
2022-11-06T11:30:20.580Z,9.16
2022-11-06T11:40:37.039Z,9.18
2022-11-06T11:50:42.860Z,9.30
2022-11-06T12:00:55.903Z,9.33
2022-11-06T12:11:06.440Z,9.27
2022-11-06T12:21:19.048Z,9.21
2022-11-06T12:31:37.144Z,9.15
2022-11-06T12:41:44.562Z,9.10
2022-11-06T12:51:59.774Z,9.06
2022-11-06T13:02:23.873Z,9.01
2022-11-06T13:12:35.346Z,8.97
2022-11-06T13:22:45.739Z,8.89
2022-11-06T13:33:06.435Z,8.87
2022-11-06T13:43:19.760Z,8.81
2022-11-06T13:53:35.190Z,8.74
2022-11-06T14:04:10.824Z,8.63
2022-11-06T14:14:27.229Z,8.48
2022-11-06T14:24:35.247Z,8.28
2022-11-06T14:34:42.190Z,8.03
2022-11-06T14:44:51.977Z,7.73
2022-11-06T14:55:05.259Z,7.37
2022-11-06T15:05:19.374Z,6.94
2022-11-06T15:15:26.024Z,6.47
2022-11-06T15:25:32.747Z,6.00
2022-11-06T15:35:38.686Z,5.54
2022-11-06T15:45:44.385Z,5.09
2022-11-06T15:55:56.786Z,4.70
2022-11-06T16:06:04.354Z,4.36
2022-11-06T16:16:28.716Z,4.05
2022-11-06T16:26:45.697Z,3.75
2022-11-06T16:36:59.565Z,3.52
2022-11-06T16:47:16.690Z,3.42
2022-11-06T16:57:25.145Z,3.60
2022-11-06T17:07:30.955Z,3.59
2022-11-06T17:17:40.104Z,3.49
2022-11-06T17:27:45.905Z,3.39
2022-11-06T17:37:51.719Z,3.43
2022-11-06T17:47:57.403Z,3.47
2022-11-06T17:58:03.011Z,3.50
2022-11-06T18:08:12.522Z,3.55
2022-11-06T18:18:18.446Z,3.61
2022-11-06T18:28:27.640Z,3.69
2022-11-06T18:38:33.634Z,3.62
2022-11-06T18:48:39.895Z,3.56
2022-11-06T18:58:46.051Z,3.42
2022-11-06T19:08:51.726Z,3.28
2022-11-06T19:29:08.659Z,3.03
2022-11-06T19:39:14.502Z,2.98
2022-11-06T19:49:20.204Z,2.92
2022-11-06T19:59:26.198Z,2.84
2022-11-06T20:09:34.364Z,2.79
2022-11-06T20:19:40.099Z,2.82
2022-11-06T20:29:45.772Z,2.88
2022-11-06T20:39:52.181Z,2.82
2022-11-06T20:50:00.544Z,2.70
2022-11-06T21:00:06.894Z,2.57
2022-11-06T21:10:13.416Z,2.47
2022-11-06T21:20:22.903Z,2.43
2022-11-06T21:30:28.859Z,2.44
2022-11-06T21:40:34.731Z,2.41
2022-11-06T21:50:40.425Z,2.37
2022-11-06T22:00:46.337Z,2.35
2022-11-06T22:10:52.174Z,2.30
2022-11-06T22:21:07.937Z,2.42
2022-11-06T22:31:14.705Z,2.71
2022-11-06T22:41:24.376Z,2.93
2022-11-06T22:51:32.784Z,3.11
2022-11-06T23:01:42.681Z,3.30
2022-11-06T23:11:49.619Z,3.14
2022-11-06T23:22:16.467Z,3.01
2022-11-06T23:32:22.758Z,2.91
2022-11-06T23:42:28.554Z,2.89
2022-11-06T23:52:34.512Z,2.82
